createdAt,value
2023-06-20T00:02:18.208Z,7.15
2023-06-20T00:04:45.726Z,7.10
2023-06-20T00:07:13.246Z,6.40
2023-06-20T00:09:40.870Z,5.38
2023-06-20T00:12:08.809Z,6.03
2023-06-20T00:14:38.745Z,5.22
2023-06-20T00:17:06.768Z,5.70
2023-06-20T00:19:34.485Z,6.13
2023-06-20T00:22:05.062Z,7.82
2023-06-20T00:24:34.020Z,10.23
2023-06-20T00:27:02.416Z,6.28
2023-06-20T00:29:30.605Z,8.30
2023-06-20T00:31:58.577Z,7.15
2023-06-20T00:34:26.724Z,6.57
2023-06-20T00:36:54.578Z,5.18
2023-06-20T00:39:22.281Z,5.95
2023-06-20T00:41:50.249Z,4.18
2023-06-20T00:44:17.979Z,3.95
2023-06-20T00:46:45.596Z,7.78
2023-06-20T00:49:13.596Z,4.70
2023-06-20T00:51:41.591Z,4.90
2023-06-20T00:56:39.939Z,4.90
2023-06-20T00:59:07.489Z,7.20
2023-06-20T01:01:35.245Z,5.80
2023-06-20T01:04:04.610Z,4.85
2023-06-20T01:07:01.098Z,9.05
2023-06-20T01:09:45.882Z,6.53
2023-06-20T01:12:38.421Z,6.53
2023-06-20T01:15:30.218Z,5.93
2023-06-20T01:18:12.904Z,7.30
2023-06-20T01:20:47.417Z,5.50
2023-06-20T01:23:26.789Z,4.80
2023-06-20T01:26:03.131Z,4.95
2023-06-20T01:28:42.966Z,4.07
2023-06-20T01:31:19.750Z,6.72
2023-06-20T01:33:55.001Z,5.53
2023-06-20T01:36:23.999Z,6.22
2023-06-20T01:38:58.130Z,7.28
2023-06-20T01:41:27.750Z,4.75
2023-06-20T01:43:57.470Z,5.25
2023-06-20T01:46:25.974Z,6.40
2023-06-20T01:48:55.078Z,7.20
2023-06-20T01:51:23.835Z,7.65
2023-06-20T01:53:52.256Z,8.55
2023-06-20T01:56:20.261Z,3.35
2023-06-20T01:58:50.034Z,4.90
2023-06-20T02:01:19.192Z,5.82
2023-06-20T02:03:49.140Z,4.90
2023-06-20T02:08:45.232Z,6.75
2023-06-20T02:11:15.723Z,5.07
2023-06-20T02:13:44.416Z,4.53
2023-06-20T02:16:13.559Z,5.70
2023-06-20T02:18:41.276Z,5.77
2023-06-20T02:21:14.406Z,4.68
2023-06-20T02:23:43.561Z,7.60
2023-06-20T02:26:17.511Z,6.35
2023-06-20T02:28:50.619Z,7.30
2023-06-20T02:31:22.626Z,6.57
2023-06-20T02:33:54.836Z,4.05
2023-06-20T02:36:28.034Z,7.25
2023-06-20T02:38:57.001Z,7.60
2023-06-20T02:41:25.033Z,5.57
2023-06-20T02:43:52.784Z,4.05
2023-06-20T02:47:03.963Z,8.73
2023-06-20T02:49:45.134Z,5.20
2023-06-20T02:52:49.577Z,6.38
2023-06-20T02:55:36.061Z,3.55
2023-06-20T02:58:14.190Z,5.95
2023-06-20T03:00:50.282Z,10.55
2023-06-20T03:03:22.586Z,4.55
2023-06-20T03:05:52.102Z,5.63
2023-06-20T03:08:22.196Z,4.82
2023-06-20T03:10:50.992Z,9.13
2023-06-20T03:13:18.886Z,8.90
2023-06-20T03:15:52.147Z,7.22
2023-06-20T03:18:21.124Z,11.00
2023-06-20T03:20:49.849Z,5.75
2023-06-20T03:23:17.982Z,10.07
2023-06-20T03:25:46.594Z,10.18
2023-06-20T03:28:14.326Z,5.65
2023-06-20T03:30:46.038Z,6.53
2023-06-20T03:33:13.639Z,7.10
2023-06-20T03:35:41.354Z,6.38
2023-06-20T03:38:09.553Z,7.78
2023-06-20T03:40:37.098Z,9.63
2023-06-20T03:43:04.797Z,9.27
2023-06-20T03:45:33.140Z,9.60
2023-06-20T03:48:00.815Z,7.55
2023-06-20T03:50:29.171Z,8.35
2023-06-20T03:52:58.623Z,8.18
2023-06-20T03:55:26.703Z,5.57
2023-06-20T03:57:56.822Z,6.33
2023-06-20T04:00:24.495Z,5.25
2023-06-20T04:02:52.307Z,8.00
2023-06-20T04:05:20.091Z,8.07
2023-06-20T04:07:47.646Z,10.15
2023-06-20T04:10:15.520Z,4.63
2023-06-20T04:12:43.662Z,7.30
2023-06-20T04:15:11.884Z,6.50
2023-06-20T04:17:42.107Z,6.60
2023-06-20T04:20:14.072Z,12.10
2023-06-20T04:22:45.994Z,6.75
2023-06-20T04:25:17.633Z,6.15
2023-06-20T04:27:54.774Z,5.55
2023-06-20T04:30:24.436Z,5.30
2023-06-20T04:32:55.273Z,13.93
2023-06-20T04:35:23.472Z,7.15
2023-06-20T04:37:52.580Z,7.22
2023-06-20T04:40:22.610Z,6.07
2023-06-20T04:42:50.285Z,7.25
2023-06-20T04:45:17.845Z,8.55
2023-06-20T04:47:45.639Z,11.63
2023-06-20T04:50:13.373Z,7.88
2023-06-20T04:52:40.980Z,6.82
2023-06-20T04:55:08.996Z,6.28
2023-06-20T04:57:36.655Z,10.20
2023-06-20T05:00:08.923Z,11.30
2023-06-20T05:02:37.461Z,7.18
2023-06-20T05:05:06.793Z,10.75
2023-06-20T05:07:35.328Z,7.97
2023-06-20T05:10:03.248Z,10.52
2023-06-20T05:12:30.985Z,7.93
2023-06-20T05:14:58.646Z,10.70
2023-06-20T05:17:26.649Z,8.77
2023-06-20T05:19:54.616Z,8.52
2023-06-20T05:22:22.917Z,9.20
2023-06-20T05:24:50.494Z,9.82
2023-06-20T05:27:18.098Z,7.65
2023-06-20T05:29:47.206Z,7.82
2023-06-20T05:32:15.162Z,6.63
2023-06-20T05:34:42.800Z,9.32
2023-06-20T05:37:10.416Z,14.55
2023-06-20T05:39:38.078Z,13.27
2023-06-20T05:42:05.993Z,11.70
2023-06-20T05:44:33.688Z,12.32
2023-06-20T05:47:01.296Z,14.32
2023-06-20T05:49:29.045Z,13.35
2023-06-20T05:51:57.888Z,12.52
2023-06-20T05:54:26.017Z,17.73
2023-06-20T05:56:54.248Z,11.30
2023-06-20T05:59:21.835Z,14.27
2023-06-20T06:01:49.443Z,13.98
2023-06-20T06:04:17.534Z,9.73
2023-06-20T06:06:45.736Z,10.80
2023-06-20T06:09:13.324Z,11.93
2023-06-20T06:11:40.982Z,14.80
2023-06-20T06:14:08.887Z,13.45
2023-06-20T06:16:36.496Z,13.50
2023-06-20T06:19:05.149Z,12.70
2023-06-20T06:21:33.523Z,11.18
2023-06-20T06:24:01.103Z,13.05
2023-06-20T06:26:29.261Z,11.18
2023-06-20T06:28:56.896Z,10.90
2023-06-20T06:31:27.708Z,16.13
2023-06-20T06:33:58.636Z,15.55
2023-06-20T06:36:32.381Z,15.57
2023-06-20T06:39:01.043Z,19.05
2023-06-20T06:41:29.061Z,17.35
2023-06-20T06:43:56.901Z,13.18
2023-06-20T06:46:24.725Z,14.93
2023-06-20T06:48:52.409Z,13.77
2023-06-20T06:51:20.155Z,14.77
2023-06-20T06:53:47.793Z,14.07
2023-06-20T06:56:15.385Z,14.63
2023-06-20T06:58:43.491Z,16.52
2023-06-20T07:01:11.233Z,19.05
2023-06-20T07:03:38.973Z,15.77
2023-06-20T07:06:06.729Z,15.75
2023-06-20T07:08:34.355Z,17.98
2023-06-20T07:11:02.075Z,17.20
2023-06-20T07:13:29.653Z,15.88
2023-06-20T07:15:57.426Z,30.23
2023-06-20T07:18:25.162Z,18.20
2023-06-20T07:20:52.803Z,22.10
2023-06-20T07:23:21.031Z,19.20
2023-06-20T07:25:48.566Z,16.73
2023-06-20T07:28:16.216Z,16.52
2023-06-20T07:30:43.782Z,18.27
2023-06-20T07:33:11.533Z,18.92
2023-06-20T07:35:39.390Z,21.67
2023-06-20T07:38:07.078Z,17.38
2023-06-20T07:40:35.234Z,15.18
2023-06-20T07:43:02.866Z,17.08
2023-06-20T07:45:30.596Z,15.48
2023-06-20T07:47:58.613Z,20.33
2023-06-20T07:50:26.157Z,17.92
2023-06-20T07:52:53.843Z,17.88
2023-06-20T07:55:29.913Z,14.57
2023-06-20T07:57:59.916Z,14.23
2023-06-20T08:00:29.388Z,20.15
2023-06-20T08:02:57.703Z,46.38
2023-06-20T08:05:25.973Z,16.45
2023-06-20T08:07:53.801Z,16.80
2023-06-20T08:10:21.766Z,15.32
2023-06-20T08:12:49.318Z,16.20
2023-06-20T08:15:17.030Z,20.10
2023-06-20T08:17:44.916Z,22.58
2023-06-20T08:20:13.547Z,22.40
2023-06-20T08:22:41.208Z,18.98
2023-06-20T08:25:09.413Z,23.98
2023-06-20T08:27:36.969Z,27.05
2023-06-20T08:30:05.077Z,22.95
2023-06-20T08:32:33.028Z,20.17
2023-06-20T08:35:00.738Z,20.17
2023-06-20T08:37:29.410Z,27.00
2023-06-20T08:39:57.817Z,21.40
2023-06-20T08:42:25.457Z,14.00
2023-06-20T08:44:58.372Z,13.32
2023-06-20T08:47:27.062Z,17.60
2023-06-20T08:49:54.741Z,12.15
2023-06-20T08:52:48.571Z,18.33
2023-06-20T08:55:16.944Z,14.98
2023-06-20T08:57:48.096Z,17.50
2023-06-20T09:00:20.775Z,16.08
2023-06-20T09:02:55.958Z,13.48
2023-06-20T09:05:24.048Z,19.13
2023-06-20T09:07:53.245Z,15.98
2023-06-20T09:10:24.575Z,12.43
2023-06-20T09:12:53.680Z,12.48
2023-06-20T09:15:24.007Z,15.70
2023-06-20T09:17:56.473Z,20.58
2023-06-20T09:20:29.103Z,15.45
2023-06-20T09:22:57.668Z,18.55
2023-06-20T09:25:27.517Z,13.13
2023-06-20T09:27:56.297Z,20.40
2023-06-20T09:30:26.230Z,13.50
2023-06-20T09:32:54.507Z,10.90
2023-06-20T09:35:22.447Z,12.00
2023-06-20T09:37:53.170Z,11.20
2023-06-20T09:40:21.884Z,15.57
2023-06-20T09:42:49.484Z,11.68
2023-06-20T09:45:18.128Z,12.15
2023-06-20T09:47:46.633Z,10.68
2023-06-20T09:50:20.091Z,17.08
2023-06-20T09:52:52.446Z,14.48
2023-06-20T09:55:21.862Z,9.43
2023-06-20T09:57:52.217Z,11.25
2023-06-20T10:00:20.964Z,16.98
2023-06-20T10:02:49.635Z,9.60
2023-06-20T10:05:22.073Z,11.25
2023-06-20T10:07:50.575Z,12.38
2023-06-20T10:10:19.039Z,9.60
2023-06-20T10:12:47.863Z,8.02
2023-06-20T10:15:16.571Z,6.20
2023-06-20T10:17:49.328Z,4.93
2023-06-20T10:20:29.680Z,6.35
2023-06-20T10:23:04.968Z,6.85
2023-06-20T10:25:33.763Z,6.47
2023-06-20T10:28:06.450Z,5.45
2023-06-20T10:30:51.886Z,10.02
2023-06-20T10:33:32.682Z,6.75
2023-06-20T10:36:04.084Z,5.03
2023-06-20T10:38:38.890Z,13.40
2023-06-20T10:41:22.530Z,11.05
2023-06-20T10:44:28.363Z,8.80
2023-06-20T10:46:55.976Z,6.32
2023-06-20T10:49:24.126Z,8.15
2023-06-20T10:51:55.186Z,11.00
2023-06-20T10:54:23.081Z,9.25
2023-06-20T10:56:51.012Z,8.02
2023-06-20T10:59:21.200Z,8.27
2023-06-20T11:04:18.159Z,6.88
2023-06-20T11:06:48.593Z,12.30
2023-06-20T11:09:20.861Z,5.22
2023-06-20T11:11:49.620Z,4.78
2023-06-20T11:14:20.837Z,6.70
2023-06-20T11:16:50.192Z,5.75
2023-06-20T11:19:35.860Z,6.72
2023-06-20T11:22:05.604Z,5.65
2023-06-20T11:24:36.639Z,3.33
2023-06-20T11:27:15.165Z,3.58
2023-06-20T11:29:43.758Z,2.83
2023-06-20T11:32:12.826Z,2.38
2023-06-20T11:35:04.176Z,2.65
2023-06-20T11:37:32.108Z,4.38
2023-06-20T11:39:59.869Z,2.45
2023-06-20T11:42:37.161Z,3.33
2023-06-20T11:45:09.482Z,3.35
2023-06-20T11:47:37.819Z,4.40
2023-06-20T11:50:06.217Z,4.30
2023-06-20T11:52:36.041Z,7.85
2023-06-20T11:55:05.581Z,2.13
2023-06-20T11:57:33.626Z,5.32
2023-06-20T12:00:07.334Z,3.40
2023-06-20T12:02:40.174Z,3.08
2023-06-20T12:05:08.489Z,2.08
2023-06-20T12:07:54.264Z,3.00
2023-06-20T12:10:25.561Z,4.30
2023-06-20T12:12:53.629Z,4.70
2023-06-20T12:15:21.221Z,3.28
2023-06-20T12:17:49.408Z,4.80
2023-06-20T12:20:32.996Z,4.55
2023-06-20T12:23:04.000Z,4.35
2023-06-20T12:25:33.171Z,4.45
2023-06-20T12:28:02.639Z,4.28
2023-06-20T12:30:31.997Z,4.67
2023-06-20T12:33:04.131Z,5.55
2023-06-20T12:35:31.903Z,4.43
2023-06-20T12:37:59.748Z,3.30
2023-06-20T12:40:27.802Z,6.30
2023-06-20T12:42:55.624Z,3.20
2023-06-20T12:45:23.290Z,3.88
2023-06-20T12:47:50.982Z,5.97
2023-06-20T12:50:18.760Z,5.35
2023-06-20T12:52:46.598Z,2.70
2023-06-20T12:55:15.055Z,2.53
2023-06-20T12:57:43.043Z,3.97
2023-06-20T13:00:12.079Z,2.90
2023-06-20T13:02:40.302Z,4.68
2023-06-20T13:05:11.313Z,7.20
2023-06-20T13:07:39.382Z,4.72
2023-06-20T13:10:07.800Z,6.38
2023-06-20T13:12:36.337Z,6.85
2023-06-20T13:15:08.052Z,4.95
2023-06-20T13:17:40.297Z,7.22
2023-06-20T13:20:08.736Z,4.28
2023-06-20T13:22:36.566Z,4.20
2023-06-20T13:25:04.781Z,4.05
2023-06-20T13:27:32.329Z,2.85
2023-06-20T13:30:00.015Z,6.53
2023-06-20T13:32:27.898Z,4.72
2023-06-20T13:34:55.565Z,3.90
2023-06-20T13:37:23.429Z,2.75
2023-06-20T13:39:51.318Z,5.15
2023-06-20T13:42:18.896Z,3.10
2023-06-20T13:44:46.457Z,2.40
2023-06-20T13:47:14.559Z,2.08
2023-06-20T13:49:42.414Z,1.40
2023-06-20T13:52:10.704Z,3.03
2023-06-20T13:54:38.256Z,2.00
2023-06-20T13:57:06.204Z,2.08
2023-06-20T13:59:34.026Z,3.85
2023-06-20T14:02:01.948Z,5.05
2023-06-20T14:04:29.689Z,2.47
2023-06-20T14:06:57.664Z,2.72
2023-06-20T14:09:25.332Z,3.42
2023-06-20T14:11:53.111Z,4.70
2023-06-20T14:14:22.348Z,3.20
2023-06-20T14:16:50.650Z,3.88
2023-06-20T14:19:18.292Z,3.95
2023-06-20T14:21:46.483Z,5.60
2023-06-20T14:24:14.624Z,5.57
2023-06-20T14:26:42.830Z,6.32
2023-06-20T14:29:13.144Z,5.95
2023-06-20T14:31:41.223Z,5.57
2023-06-20T14:34:08.922Z,5.47
2023-06-20T14:36:38.836Z,5.53
2023-06-20T14:39:06.473Z,5.00
2023-06-20T14:41:34.486Z,4.97
2023-06-20T14:44:02.041Z,8.38
2023-06-20T14:46:29.781Z,6.80
2023-06-20T14:48:57.443Z,6.43
2023-06-20T14:51:25.238Z,7.45
2023-06-20T14:53:53.204Z,4.55
2023-06-20T14:56:21.304Z,6.05
2023-06-20T14:58:48.860Z,5.35
2023-06-20T15:01:16.523Z,8.07
2023-06-20T15:03:44.095Z,7.97
2023-06-20T15:06:11.717Z,7.22
2023-06-20T15:08:39.383Z,6.20
2023-06-20T15:11:07.037Z,7.80
2023-06-20T15:13:34.878Z,7.85
2023-06-20T15:16:02.902Z,6.93
2023-06-20T15:18:30.536Z,6.15
2023-06-20T15:20:58.200Z,7.78
2023-06-20T15:23:25.733Z,10.60
2023-06-20T15:25:53.237Z,7.55
2023-06-20T15:28:20.900Z,9.63
2023-06-20T15:30:48.586Z,6.82
2023-06-20T15:33:16.498Z,7.15
2023-06-20T15:35:47.332Z,5.38
2023-06-20T15:38:15.179Z,7.75
2023-06-20T15:40:43.761Z,5.28
2023-06-20T15:43:11.718Z,6.43
2023-06-20T15:45:40.483Z,7.13
2023-06-20T15:48:10.735Z,6.10
2023-06-20T15:50:38.333Z,8.43
2023-06-20T15:53:07.029Z,5.22
2023-06-20T15:55:34.555Z,7.97
2023-06-20T15:58:02.121Z,7.47
2023-06-20T16:00:29.785Z,5.97
2023-06-20T16:02:58.139Z,6.93
2023-06-20T16:05:25.794Z,7.45
2023-06-20T16:07:53.481Z,8.80
2023-06-20T16:10:21.478Z,7.03
2023-06-20T16:12:49.762Z,7.10
2023-06-20T16:15:17.433Z,5.55
2023-06-20T16:17:45.502Z,9.70
2023-06-20T16:20:13.317Z,7.50
2023-06-20T16:22:41.282Z,7.32
2023-06-20T16:25:09.351Z,7.38
2023-06-20T16:27:37.718Z,6.50
2023-06-20T16:30:06.008Z,8.15
2023-06-20T16:32:34.346Z,7.45
2023-06-20T16:35:03.438Z,8.65
2023-06-20T16:37:31.049Z,8.55
2023-06-20T16:39:59.847Z,8.95
2023-06-20T16:42:27.524Z,8.05
2023-06-20T16:44:55.190Z,11.30
2023-06-20T16:47:23.172Z,9.68
2023-06-20T16:49:50.712Z,6.47
2023-06-20T16:52:18.423Z,6.18
2023-06-20T16:54:45.981Z,6.72
2023-06-20T16:57:13.663Z,6.65
2023-06-20T16:59:43.362Z,5.22
2023-06-20T17:02:13.239Z,5.82
2023-06-20T17:04:41.019Z,5.68
2023-06-20T17:07:08.694Z,6.60
2023-06-20T17:09:36.307Z,9.10
2023-06-20T17:12:04.397Z,5.22
2023-06-20T17:14:32.663Z,5.97
2023-06-20T17:17:00.859Z,6.25
2023-06-20T17:19:28.942Z,11.90
2023-06-20T17:22:06.702Z,8.00
2023-06-20T17:24:42.146Z,6.32
2023-06-20T17:27:12.219Z,6.05
2023-06-20T17:29:43.058Z,9.57
2023-06-20T17:32:11.389Z,6.20
2023-06-20T17:34:39.073Z,6.97
2023-06-20T17:37:07.168Z,8.02
2023-06-20T17:39:35.205Z,6.45
2023-06-20T17:42:02.900Z,9.07
2023-06-20T17:44:30.769Z,5.03
2023-06-20T17:46:59.153Z,5.03
2023-06-20T17:49:26.864Z,4.60
2023-06-20T17:51:54.863Z,10.40
2023-06-20T17:54:22.693Z,7.80
2023-06-20T17:56:50.651Z,6.15
2023-06-20T17:59:19.488Z,7.35
2023-06-20T18:01:47.838Z,6.00
2023-06-20T18:04:15.811Z,5.68
2023-06-20T18:06:43.674Z,8.25
2023-06-20T18:09:11.388Z,5.40
2023-06-20T18:11:39.077Z,4.28
2023-06-20T18:14:06.995Z,6.65
2023-06-20T18:16:34.701Z,5.03
2023-06-20T18:19:02.914Z,8.35
2023-06-20T18:21:30.881Z,6.00
2023-06-20T18:23:58.718Z,8.23
2023-06-20T18:26:26.797Z,7.85
2023-06-20T18:28:55.274Z,6.40
2023-06-20T18:31:22.866Z,7.70
2023-06-20T18:33:50.728Z,10.10
2023-06-20T18:36:18.473Z,7.47
2023-06-20T18:38:46.350Z,10.65
2023-06-20T18:41:14.427Z,8.57
2023-06-20T18:43:43.011Z,6.28
2023-06-20T18:46:10.642Z,6.00
2023-06-20T18:48:38.518Z,6.53
2023-06-20T18:51:06.491Z,10.25
2023-06-20T18:53:34.241Z,6.65
2023-06-20T18:56:01.861Z,7.75
2023-06-20T18:58:31.285Z,9.75
2023-06-20T19:01:00.602Z,7.97
2023-06-20T19:03:28.911Z,10.70
2023-06-20T19:05:56.471Z,10.10
2023-06-20T19:08:24.234Z,7.18
2023-06-20T19:10:51.978Z,9.05
2023-06-20T19:13:19.615Z,7.18
2023-06-20T19:15:47.255Z,7.72
2023-06-20T19:18:15.235Z,7.68
2023-06-20T19:20:42.931Z,7.43
2023-06-20T19:23:10.490Z,7.43
2023-06-20T19:25:38.662Z,6.85
2023-06-20T19:28:08.092Z,6.90
2023-06-20T19:30:35.829Z,4.93
2023-06-20T19:33:06.481Z,6.78
2023-06-20T19:35:34.221Z,7.68
2023-06-20T19:38:02.999Z,8.65
2023-06-20T19:40:30.809Z,7.18
2023-06-20T19:42:58.779Z,8.65
2023-06-20T19:45:34.028Z,7.93
2023-06-20T19:48:02.771Z,7.65
2023-06-20T19:50:30.526Z,8.82
2023-06-20T19:52:59.706Z,6.70
2023-06-20T19:55:27.456Z,9.13
2023-06-20T19:57:55.164Z,9.82
2023-06-20T20:00:23.227Z,8.15
2023-06-20T20:02:51.498Z,6.50
2023-06-20T20:05:19.285Z,10.77
2023-06-20T20:07:47.037Z,11.77
2023-06-20T20:10:14.612Z,9.85
2023-06-20T20:12:42.830Z,11.88
2023-06-20T20:15:11.766Z,10.48
2023-06-20T20:17:39.773Z,12.18
2023-06-20T20:20:08.136Z,9.80
2023-06-20T20:22:37.092Z,9.45
2023-06-20T20:27:35.474Z,10.52
2023-06-20T20:30:03.087Z,9.80
2023-06-20T20:32:32.064Z,9.82
2023-06-20T20:34:59.836Z,8.00
2023-06-20T20:37:27.395Z,6.10
2023-06-20T20:39:56.568Z,8.15
2023-06-20T20:42:24.413Z,7.18
2023-06-20T20:44:51.951Z,9.20
2023-06-20T20:47:19.560Z,7.32
2023-06-20T20:49:47.115Z,9.65
2023-06-20T20:52:14.822Z,12.82
2023-06-20T20:54:42.482Z,15.65
2023-06-20T20:57:10.143Z,8.38
2023-06-20T20:59:37.759Z,5.95
2023-06-20T21:02:06.864Z,10.27
2023-06-20T21:04:36.329Z,14.18
2023-06-20T21:07:04.062Z,9.23
2023-06-20T21:09:32.302Z,8.63
2023-06-20T21:11:59.906Z,19.25
2023-06-20T21:14:27.469Z,10.77
2023-06-20T21:16:55.090Z,9.20
2023-06-20T21:19:24.529Z,6.32
2023-06-20T21:21:52.379Z,7.03
2023-06-20T21:24:20.147Z,5.80
2023-06-20T21:26:48.039Z,6.72
2023-06-20T21:29:15.750Z,6.47
2023-06-20T21:31:43.362Z,7.57
2023-06-20T21:34:11.018Z,6.70
2023-06-20T21:36:38.988Z,8.27
2023-06-20T21:39:07.148Z,7.50
2023-06-20T21:41:34.772Z,9.93
2023-06-20T21:44:02.492Z,5.82
2023-06-20T21:46:30.521Z,8.00
2023-06-20T21:48:58.590Z,6.70
2023-06-20T21:51:26.196Z,8.65
2023-06-20T21:53:54.681Z,8.00
2023-06-20T21:56:22.241Z,6.90
2023-06-20T21:58:50.227Z,7.95
2023-06-20T22:01:17.837Z,10.57
2023-06-20T22:03:47.235Z,8.38
2023-06-20T22:06:14.948Z,8.05
2023-06-20T22:08:43.093Z,10.02
2023-06-20T22:11:10.752Z,10.75
2023-06-20T22:13:38.421Z,8.40
2023-06-20T22:16:06.394Z,8.80
2023-06-20T22:18:34.412Z,6.47
2023-06-20T22:21:04.582Z,11.20
2023-06-20T22:23:32.217Z,11.40
2023-06-20T22:26:00.413Z,8.35
2023-06-20T22:28:28.734Z,7.22
2023-06-20T22:30:56.620Z,8.68
2023-06-20T22:33:25.578Z,6.97
2023-06-20T22:35:53.817Z,9.60
2023-06-20T22:38:21.372Z,20.88
2023-06-20T22:40:50.523Z,5.82
2023-06-20T22:43:18.176Z,10.55
2023-06-20T22:45:47.078Z,8.13
2023-06-20T22:48:17.859Z,8.27
2023-06-20T22:50:48.106Z,5.53
2023-06-20T22:53:16.278Z,10.57
2023-06-20T22:55:44.203Z,5.45
2023-06-20T22:58:11.904Z,10.57
2023-06-20T23:00:39.779Z,7.25
2023-06-20T23:03:07.776Z,9.63
2023-06-20T23:05:35.422Z,9.05
2023-06-20T23:08:03.154Z,8.68
2023-06-20T23:10:31.127Z,5.60
2023-06-20T23:12:59.151Z,6.18
2023-06-20T23:15:26.693Z,7.82
2023-06-20T23:17:54.363Z,8.88
2023-06-20T23:20:22.396Z,8.35
2023-06-20T23:22:50.034Z,7.93
2023-06-20T23:25:18.047Z,5.63
2023-06-20T23:27:46.376Z,10.00
2023-06-20T23:30:14.181Z,8.40
2023-06-20T23:32:42.253Z,7.15
2023-06-20T23:35:10.091Z,8.15
2023-06-20T23:37:41.080Z,8.98
2023-06-20T23:40:13.910Z,4.85
2023-06-20T23:42:42.201Z,6.35
2023-06-20T23:45:10.559Z,10.57
2023-06-20T23:47:38.877Z,6.35
2023-06-20T23:50:07.480Z,7.97
2023-06-20T23:52:36.633Z,9.75
2023-06-20T23:55:04.612Z,6.80
2023-06-20T23:57:34.599Z,5.45
